sensor_id;sensor_type;location;lat;lon;timestamp;P1;durP1;ratioP1;P2;durP2;ratioP2
41259;SDS011;26993;48.958;9.330;2022-12-18T00:01:59;54.73;;;23.23;;
41259;SDS011;26993;48.958;9.330;2022-12-18T00:04:46;56.83;;;23.27;;
41259;SDS011;26993;48.958;9.330;2022-12-18T00:07:32;48.33;;;21.90;;
41259;SDS011;26993;48.958;9.330;2022-12-18T00:10:19;63.10;;;23.47;;
41259;SDS011;26993;48.958;9.330;2022-12-18T00:13:05;60.17;;;24.80;;
41259;SDS011;26993;48.958;9.330;2022-12-18T00:15:52;58.13;;;23.77;;
41259;SDS011;26993;48.958;9.330;2022-12-18T00:18:40;60.63;;;23.43;;
41259;SDS011;26993;48.958;9.330;2022-12-18T00:21:28;60.80;;;23.13;;
41259;SDS011;26993;48.958;9.330;2022-12-18T00:24:15;55.63;;;23.83;;
41259;SDS011;26993;48.958;9.330;2022-12-18T00:27:02;59.83;;;24.67;;
41259;SDS011;26993;48.958;9.330;2022-12-18T00:29:49;50.60;;;22.97;;
41259;SDS011;26993;48.958;9.330;2022-12-18T00:32:35;56.07;;;24.53;;
41259;SDS011;26993;48.958;9.330;2022-12-18T00:35:23;60.30;;;23.93;;
41259;SDS011;26993;48.958;9.330;2022-12-18T00:38:10;55.00;;;22.63;;
41259;SDS011;26993;48.958;9.330;2022-12-18T00:40:57;54.60;;;23.43;;
41259;SDS011;26993;48.958;9.330;2022-12-18T00:43:43;55.50;;;23.43;;
41259;SDS011;26993;48.958;9.330;2022-12-18T00:46:29;51.03;;;21.80;;
41259;SDS011;26993;48.958;9.330;2022-12-18T00:49:16;54.70;;;23.30;;
41259;SDS011;26993;48.958;9.330;2022-12-18T00:52:05;53.70;;;21.07;;
41259;SDS011;26993;48.958;9.330;2022-12-18T00:54:52;44.20;;;19.67;;
41259;SDS011;26993;48.958;9.330;2022-12-18T00:57:39;49.70;;;20.80;;
41259;SDS011;26993;48.958;9.330;2022-12-18T01:00:26;49.97;;;20.73;;
41259;SDS011;26993;48.958;9.330;2022-12-18T01:03:13;52.00;;;22.30;;
41259;SDS011;26993;48.958;9.330;2022-12-18T01:06:04;51.40;;;21.43;;
41259;SDS011;26993;48.958;9.330;2022-12-18T01:08:53;57.47;;;21.87;;
41259;SDS011;26993;48.958;9.330;2022-12-18T01:11:40;48.57;;;21.27;;
41259;SDS011;26993;48.958;9.330;2022-12-18T01:14:26;47.07;;;21.23;;
41259;SDS011;26993;48.958;9.330;2022-12-18T01:17:13;51.10;;;21.47;;
41259;SDS011;26993;48.958;9.330;2022-12-18T01:20:00;48.00;;;21.13;;
41259;SDS011;26993;48.958;9.330;2022-12-18T01:22:47;52.63;;;21.90;;
41259;SDS011;26993;48.958;9.330;2022-12-18T01:25:36;55.83;;;22.50;;
41259;SDS011;26993;48.958;9.330;2022-12-18T01:28:23;49.50;;;21.33;;
41259;SDS011;26993;48.958;9.330;2022-12-18T01:31:13;53.00;;;21.10;;
41259;SDS011;26993;48.958;9.330;2022-12-18T01:34:03;51.33;;;22.20;;
41259;SDS011;26993;48.958;9.330;2022-12-18T01:36:51;49.27;;;20.70;;
41259;SDS011;26993;48.958;9.330;2022-12-18T01:39:38;51.60;;;21.60;;
41259;SDS011;26993;48.958;9.330;2022-12-18T01:42:26;50.53;;;21.90;;
41259;SDS011;26993;48.958;9.330;2022-12-18T01:45:23;49.10;;;20.87;;
41259;SDS011;26993;48.958;9.330;2022-12-18T01:48:12;54.57;;;22.53;;
41259;SDS011;26993;48.958;9.330;2022-12-18T01:50:59;48.37;;;21.20;;
41259;SDS011;26993;48.958;9.330;2022-12-18T01:53:46;46.97;;;21.37;;
41259;SDS011;26993;48.958;9.330;2022-12-18T01:56:33;52.70;;;21.73;;
41259;SDS011;26993;48.958;9.330;2022-12-18T01:59:21;51.77;;;22.07;;
41259;SDS011;26993;48.958;9.330;2022-12-18T02:02:08;49.30;;;22.17;;
41259;SDS011;26993;48.958;9.330;2022-12-18T02:04:55;56.47;;;22.77;;
41259;SDS011;26993;48.958;9.330;2022-12-18T02:07:43;57.37;;;23.30;;
41259;SDS011;26993;48.958;9.330;2022-12-18T02:10:44;63.07;;;23.37;;
41259;SDS011;26993;48.958;9.330;2022-12-18T02:13:39;55.77;;;21.63;;
41259;SDS011;26993;48.958;9.330;2022-12-18T02:16:32;57.23;;;22.50;;
41259;SDS011;26993;48.958;9.330;2022-12-18T02:19:37;53.50;;;21.70;;
41259;SDS011;26993;48.958;9.330;2022-12-18T02:22:34;50.30;;;21.03;;
41259;SDS011;26993;48.958;9.330;2022-12-18T02:25:38;53.30;;;21.70;;
41259;SDS011;26993;48.958;9.330;2022-12-18T02:28:33;53.77;;;21.37;;
41259;SDS011;26993;48.958;9.330;2022-12-18T02:31:25;55.60;;;21.97;;
41259;SDS011;26993;48.958;9.330;2022-12-18T02:34:14;52.87;;;20.97;;
41259;SDS011;26993;48.958;9.330;2022-12-18T02:37:03;50.60;;;21.40;;
41259;SDS011;26993;48.958;9.330;2022-12-18T02:39:56;53.70;;;21.83;;
41259;SDS011;26993;48.958;9.330;2022-12-18T02:42:45;47.23;;;21.10;;
41259;SDS011;26993;48.958;9.330;2022-12-18T02:45:33;51.77;;;21.73;;
41259;SDS011;26993;48.958;9.330;2022-12-18T02:48:21;51.77;;;20.90;;
41259;SDS011;26993;48.958;9.330;2022-12-18T02:51:11;45.30;;;20.27;;
41259;SDS011;26993;48.958;9.330;2022-12-18T02:54:09;52.47;;;20.53;;
41259;SDS011;26993;48.958;9.330;2022-12-18T02:57:03;51.93;;;21.83;;
41259;SDS011;26993;48.958;9.330;2022-12-18T02:59:59;51.87;;;21.13;;
41259;SDS011;26993;48.958;9.330;2022-12-18T03:02:53;51.77;;;23.27;;
41259;SDS011;26993;48.958;9.330;2022-12-18T03:05:45;55.10;;;20.93;;
41259;SDS011;26993;48.958;9.330;2022-12-18T03:08:37;53.67;;;22.20;;
41259;SDS011;26993;48.958;9.330;2022-12-18T03:11:28;50.37;;;20.87;;
41259;SDS011;26993;48.958;9.330;2022-12-18T03:14:36;51.47;;;21.17;;
41259;SDS011;26993;48.958;9.330;2022-12-18T03:17:26;51.73;;;20.50;;
41259;SDS011;26993;48.958;9.330;2022-12-18T03:20:18;45.27;;;19.63;;
41259;SDS011;26993;48.958;9.330;2022-12-18T03:23:09;47.53;;;20.43;;
41259;SDS011;26993;48.958;9.330;2022-12-18T03:25:58;46.80;;;20.33;;
41259;SDS011;26993;48.958;9.330;2022-12-18T03:28:50;53.07;;;21.20;;
41259;SDS011;26993;48.958;9.330;2022-12-18T03:31:40;47.37;;;20.23;;
41259;SDS011;26993;48.958;9.330;2022-12-18T03:34:29;53.43;;;20.47;;
41259;SDS011;26993;48.958;9.330;2022-12-18T03:37:19;48.17;;;20.53;;
41259;SDS011;26993;48.958;9.330;2022-12-18T03:40:06;51.10;;;21.30;;
41259;SDS011;26993;48.958;9.330;2022-12-18T03:42:55;48.63;;;20.43;;
41259;SDS011;26993;48.958;9.330;2022-12-18T03:45:47;50.97;;;21.33;;
41259;SDS011;26993;48.958;9.330;2022-12-18T03:48:41;45.50;;;20.97;;
41259;SDS011;26993;48.958;9.330;2022-12-18T03:51:33;50.00;;;20.47;;
41259;SDS011;26993;48.958;9.330;2022-12-18T03:54:27;49.33;;;20.93;;
41259;SDS011;26993;48.958;9.330;2022-12-18T03:57:16;51.50;;;21.77;;
41259;SDS011;26993;48.958;9.330;2022-12-18T04:00:05;49.40;;;21.33;;
41259;SDS011;26993;48.958;9.330;2022-12-18T04:02:54;54.67;;;22.43;;
41259;SDS011;26993;48.958;9.330;2022-12-18T04:05:43;51.63;;;21.73;;
41259;SDS011;26993;48.958;9.330;2022-12-18T04:08:31;51.33;;;21.77;;
41259;SDS011;26993;48.958;9.330;2022-12-18T04:11:21;56.10;;;21.50;;
41259;SDS011;26993;48.958;9.330;2022-12-18T04:14:08;53.57;;;21.43;;
41259;SDS011;26993;48.958;9.330;2022-12-18T04:16:55;47.97;;;19.97;;
41259;SDS011;26993;48.958;9.330;2022-12-18T04:19:41;48.10;;;20.93;;
41259;SDS011;26993;48.958;9.330;2022-12-18T04:22:28;49.60;;;20.90;;
41259;SDS011;26993;48.958;9.330;2022-12-18T04:25:15;47.57;;;19.87;;
41259;SDS011;26993;48.958;9.330;2022-12-18T04:28:03;52.50;;;20.87;;
41259;SDS011;26993;48.958;9.330;2022-12-18T04:30:50;53.63;;;19.80;;
41259;SDS011;26993;48.958;9.330;2022-12-18T04:33:36;46.50;;;19.17;;
41259;SDS011;26993;48.958;9.330;2022-12-18T04:36:23;51.07;;;21.20;;
41259;SDS011;26993;48.958;9.330;2022-12-18T04:39:13;51.10;;;21.70;;
41259;SDS011;26993;48.958;9.330;2022-12-18T04:42:02;58.43;;;22.50;;
41259;SDS011;26993;48.958;9.330;2022-12-18T04:44:50;54.60;;;22.60;;
41259;SDS011;26993;48.958;9.330;2022-12-18T04:47:37;55.57;;;21.53;;
41259;SDS011;26993;48.958;9.330;2022-12-18T04:50:23;51.63;;;21.20;;
41259;SDS011;26993;48.958;9.330;2022-12-18T04:53:10;54.97;;;22.93;;
41259;SDS011;26993;48.958;9.330;2022-12-18T04:56:04;49.47;;;20.40;;
41259;SDS011;26993;48.958;9.330;2022-12-18T04:58:52;49.10;;;20.93;;
41259;SDS011;26993;48.958;9.330;2022-12-18T05:01:40;49.67;;;20.73;;
41259;SDS011;26993;48.958;9.330;2022-12-18T05:04:27;58.83;;;21.63;;
41259;SDS011;26993;48.958;9.330;2022-12-18T05:07:13;54.77;;;22.53;;
41259;SDS011;26993;48.958;9.330;2022-12-18T05:10:00;57.33;;;22.20;;
41259;SDS011;26993;48.958;9.330;2022-12-18T05:12:47;57.37;;;22.00;;
41259;SDS011;26993;48.958;9.330;2022-12-18T05:15:50;57.17;;;22.73;;
41259;SDS011;26993;48.958;9.330;2022-12-18T05:18:39;56.40;;;22.57;;
41259;SDS011;26993;48.958;9.330;2022-12-18T05:21:26;59.53;;;21.97;;
41259;SDS011;26993;48.958;9.330;2022-12-18T05:24:13;62.57;;;23.17;;
41259;SDS011;26993;48.958;9.330;2022-12-18T05:26:59;56.07;;;22.93;;
41259;SDS011;26993;48.958;9.330;2022-12-18T05:29:46;57.70;;;23.33;;
41259;SDS011;26993;48.958;9.330;2022-12-18T05:32:33;50.17;;;21.13;;
41259;SDS011;26993;48.958;9.330;2022-12-18T05:35:21;56.37;;;24.03;;
41259;SDS011;26993;48.958;9.330;2022-12-18T05:38:08;56.70;;;22.00;;
41259;SDS011;26993;48.958;9.330;2022-12-18T05:40:55;57.57;;;22.63;;
41259;SDS011;26993;48.958;9.330;2022-12-18T05:43:43;50.03;;;21.40;;
41259;SDS011;26993;48.958;9.330;2022-12-18T05:46:29;52.60;;;22.03;;
41259;SDS011;26993;48.958;9.330;2022-12-18T05:49:16;60.83;;;22.60;;
41259;SDS011;26993;48.958;9.330;2022-12-18T05:52:04;55.50;;;22.07;;
41259;SDS011;26993;48.958;9.330;2022-12-18T05:54:51;52.43;;;21.10;;
41259;SDS011;26993;48.958;9.330;2022-12-18T05:57:37;61.87;;;22.97;;
41259;SDS011;26993;48.958;9.330;2022-12-18T06:00:24;59.33;;;24.13;;
41259;SDS011;26993;48.958;9.330;2022-12-18T06:03:11;59.33;;;23.17;;
41259;SDS011;26993;48.958;9.330;2022-12-18T06:05:59;54.97;;;22.50;;
41259;SDS011;26993;48.958;9.330;2022-12-18T06:08:47;53.57;;;21.40;;
41259;SDS011;26993;48.958;9.330;2022-12-18T06:11:35;54.13;;;21.73;;
41259;SDS011;26993;48.958;9.330;2022-12-18T06:14:22;58.53;;;21.67;;
41259;SDS011;26993;48.958;9.330;2022-12-18T06:17:09;53.77;;;21.00;;
41259;SDS011;26993;48.958;9.330;2022-12-18T06:19:56;56.73;;;22.30;;
41259;SDS011;26993;48.958;9.330;2022-12-18T06:22:43;57.90;;;21.53;;
41259;SDS011;26993;48.958;9.330;2022-12-18T06:25:31;53.67;;;20.33;;
41259;SDS011;26993;48.958;9.330;2022-12-18T06:28:18;52.83;;;21.53;;
41259;SDS011;26993;48.958;9.330;2022-12-18T06:31:05;57.57;;;21.87;;
41259;SDS011;26993;48.958;9.330;2022-12-18T06:33:52;57.57;;;21.07;;
41259;SDS011;26993;48.958;9.330;2022-12-18T06:36:39;56.17;;;20.93;;
41259;SDS011;26993;48.958;9.330;2022-12-18T06:39:26;57.60;;;21.87;;
41259;SDS011;26993;48.958;9.330;2022-12-18T06:42:14;61.90;;;21.13;;
41259;SDS011;26993;48.958;9.330;2022-12-18T06:45:01;54.93;;;21.37;;
41259;SDS011;26993;48.958;9.330;2022-12-18T06:47:48;59.00;;;20.83;;
41259;SDS011;26993;48.958;9.330;2022-12-18T06:50:35;55.87;;;20.63;;
41259;SDS011;26993;48.958;9.330;2022-12-18T06:53:21;55.40;;;20.80;;
41259;SDS011;26993;48.958;9.330;2022-12-18T06:56:08;51.17;;;19.37;;
41259;SDS011;26993;48.958;9.330;2022-12-18T06:58:56;54.60;;;20.80;;
41259;SDS011;26993;48.958;9.330;2022-12-18T07:01:43;57.00;;;21.53;;
41259;SDS011;26993;48.958;9.330;2022-12-18T07:04:29;51.30;;;19.90;;
41259;SDS011;26993;48.958;9.330;2022-12-18T07:07:16;49.27;;;19.97;;
41259;SDS011;26993;48.958;9.330;2022-12-18T07:10:03;54.40;;;20.13;;
41259;SDS011;26993;48.958;9.330;2022-12-18T07:12:50;50.43;;;19.30;;
41259;SDS011;26993;48.958;9.330;2022-12-18T07:15:38;51.23;;;20.17;;
41259;SDS011;26993;48.958;9.330;2022-12-18T07:18:25;54.83;;;20.13;;
41259;SDS011;26993;48.958;9.330;2022-12-18T07:21:12;53.20;;;20.43;;
41259;SDS011;26993;48.958;9.330;2022-12-18T07:24:00;51.93;;;19.13;;
41259;SDS011;26993;48.958;9.330;2022-12-18T07:26:46;56.53;;;20.50;;
41259;SDS011;26993;48.958;9.330;2022-12-18T07:29:34;57.50;;;20.67;;
41259;SDS011;26993;48.958;9.330;2022-12-18T07:32:22;55.40;;;19.87;;
41259;SDS011;26993;48.958;9.330;2022-12-18T07:35:08;55.10;;;19.80;;
41259;SDS011;26993;48.958;9.330;2022-12-18T07:37:55;51.90;;;20.23;;
41259;SDS011;26993;48.958;9.330;2022-12-18T07:40:42;53.70;;;20.70;;
41259;SDS011;26993;48.958;9.330;2022-12-18T07:43:28;55.60;;;20.07;;
41259;SDS011;26993;48.958;9.330;2022-12-18T07:46:16;55.10;;;20.13;;
41259;SDS011;26993;48.958;9.330;2022-12-18T07:49:04;53.80;;;19.53;;
41259;SDS011;26993;48.958;9.330;2022-12-18T07:51:51;57.00;;;19.83;;
41259;SDS011;26993;48.958;9.330;2022-12-18T07:54:39;62.10;;;21.13;;
41259;SDS011;26993;48.958;9.330;2022-12-18T07:57:26;55.47;;;19.77;;
41259;SDS011;26993;48.958;9.330;2022-12-18T08:00:13;60.67;;;21.03;;
41259;SDS011;26993;48.958;9.330;2022-12-18T08:03:01;56.40;;;19.23;;
41259;SDS011;26993;48.958;9.330;2022-12-18T08:05:51;53.17;;;19.47;;
41259;SDS011;26993;48.958;9.330;2022-12-18T08:08:37;51.50;;;19.57;;
41259;SDS011;26993;48.958;9.330;2022-12-18T08:11:27;59.23;;;19.53;;
41259;SDS011;26993;48.958;9.330;2022-12-18T08:14:14;52.03;;;20.07;;
41259;SDS011;26993;48.958;9.330;2022-12-18T08:17:01;55.23;;;21.03;;
41259;SDS011;26993;48.958;9.330;2022-12-18T08:19:48;55.00;;;19.30;;
41259;SDS011;26993;48.958;9.330;2022-12-18T08:22:36;56.73;;;21.00;;
41259;SDS011;26993;48.958;9.330;2022-12-18T08:25:24;52.47;;;18.40;;
41259;SDS011;26993;48.958;9.330;2022-12-18T08:28:10;51.53;;;18.90;;
41259;SDS011;26993;48.958;9.330;2022-12-18T08:30:57;55.27;;;20.00;;
41259;SDS011;26993;48.958;9.330;2022-12-18T08:33:44;60.00;;;20.53;;
41259;SDS011;26993;48.958;9.330;2022-12-18T08:36:30;49.97;;;19.20;;
41259;SDS011;26993;48.958;9.330;2022-12-18T08:39:18;56.33;;;20.23;;
41259;SDS011;26993;48.958;9.330;2022-12-18T08:42:05;49.40;;;19.63;;
41259;SDS011;26993;48.958;9.330;2022-12-18T08:45:09;53.23;;;20.47;;
41259;SDS011;26993;48.958;9.330;2022-12-18T08:47:57;47.83;;;18.63;;
41259;SDS011;26993;48.958;9.330;2022-12-18T08:50:43;52.50;;;19.77;;
41259;SDS011;26993;48.958;9.330;2022-12-18T08:53:30;54.30;;;20.87;;
41259;SDS011;26993;48.958;9.330;2022-12-18T08:56:18;53.20;;;18.87;;
41259;SDS011;26993;48.958;9.330;2022-12-18T08:59:05;57.60;;;20.57;;
41259;SDS011;26993;48.958;9.330;2022-12-18T09:01:53;57.27;;;21.17;;
41259;SDS011;26993;48.958;9.330;2022-12-18T09:04:39;50.07;;;19.80;;
41259;SDS011;26993;48.958;9.330;2022-12-18T09:07:26;52.60;;;19.30;;
41259;SDS011;26993;48.958;9.330;2022-12-18T09:10:13;53.97;;;19.33;;
41259;SDS011;26993;48.958;9.330;2022-12-18T09:13:01;55.77;;;20.40;;
41259;SDS011;26993;48.958;9.330;2022-12-18T09:15:48;52.27;;;20.40;;
41259;SDS011;26993;48.958;9.330;2022-12-18T09:18:36;50.20;;;19.33;;
41259;SDS011;26993;48.958;9.330;2022-12-18T09:21:23;53.33;;;19.90;;
41259;SDS011;26993;48.958;9.330;2022-12-18T09:24:11;55.50;;;19.33;;
41259;SDS011;26993;48.958;9.330;2022-12-18T09:26:59;58.53;;;21.57;;
41259;SDS011;26993;48.958;9.330;2022-12-18T09:29:47;62.03;;;20.67;;
41259;SDS011;26993;48.958;9.330;2022-12-18T09:32:33;54.37;;;20.10;;
41259;SDS011;26993;48.958;9.330;2022-12-18T09:35:20;52.63;;;20.77;;
41259;SDS011;26993;48.958;9.330;2022-12-18T09:38:07;53.13;;;20.17;;
41259;SDS011;26993;48.958;9.330;2022-12-18T09:40:58;55.40;;;20.23;;
41259;SDS011;26993;48.958;9.330;2022-12-18T09:43:50;60.23;;;21.97;;
41259;SDS011;26993;48.958;9.330;2022-12-18T09:46:43;56.40;;;20.27;;
41259;SDS011;26993;48.958;9.330;2022-12-18T09:49:34;56.13;;;20.50;;
41259;SDS011;26993;48.958;9.330;2022-12-18T09:52:25;49.43;;;20.23;;
41259;SDS011;26993;48.958;9.330;2022-12-18T09:55:16;58.60;;;21.60;;
41259;SDS011;26993;48.958;9.330;2022-12-18T09:58:13;58.00;;;19.90;;
41259;SDS011;26993;48.958;9.330;2022-12-18T10:01:07;54.50;;;20.60;;
41259;SDS011;26993;48.958;9.330;2022-12-18T10:04:00;56.73;;;20.10;;
41259;SDS011;26993;48.958;9.330;2022-12-18T10:06:49;51.17;;;20.33;;
41259;SDS011;26993;48.958;9.330;2022-12-18T10:09:42;52.10;;;20.47;;
41259;SDS011;26993;48.958;9.330;2022-12-18T10:12:37;55.60;;;21.57;;
41259;SDS011;26993;48.958;9.330;2022-12-18T10:15:34;56.90;;;21.30;;
41259;SDS011;26993;48.958;9.330;2022-12-18T10:18:29;50.27;;;20.13;;
41259;SDS011;26993;48.958;9.330;2022-12-18T10:21:28;54.80;;;21.87;;
41259;SDS011;26993;48.958;9.330;2022-12-18T10:24:20;50.93;;;20.53;;
41259;SDS011;26993;48.958;9.330;2022-12-18T10:27:15;54.83;;;21.00;;
41259;SDS011;26993;48.958;9.330;2022-12-18T10:30:07;49.97;;;19.90;;
41259;SDS011;26993;48.958;9.330;2022-12-18T10:33:00;58.10;;;20.67;;
41259;SDS011;26993;48.958;9.330;2022-12-18T10:35:49;56.40;;;21.53;;
41259;SDS011;26993;48.958;9.330;2022-12-18T10:38:41;51.90;;;20.73;;
41259;SDS011;26993;48.958;9.330;2022-12-18T10:41:28;55.83;;;20.10;;
41259;SDS011;26993;48.958;9.330;2022-12-18T10:44:17;55.03;;;20.20;;
41259;SDS011;26993;48.958;9.330;2022-12-18T10:47:06;58.13;;;20.50;;
41259;SDS011;26993;48.958;9.330;2022-12-18T10:49:59;58.03;;;19.97;;
41259;SDS011;26993;48.958;9.330;2022-12-18T10:52:52;50.97;;;20.20;;
41259;SDS011;26993;48.958;9.330;2022-12-18T10:55:43;49.27;;;19.50;;
41259;SDS011;26993;48.958;9.330;2022-12-18T10:58:33;52.37;;;19.07;;
41259;SDS011;26993;48.958;9.330;2022-12-18T11:01:21;50.80;;;19.30;;
41259;SDS011;26993;48.958;9.330;2022-12-18T11:04:08;52.27;;;20.27;;
41259;SDS011;26993;48.958;9.330;2022-12-18T11:06:56;56.50;;;20.30;;
41259;SDS011;26993;48.958;9.330;2022-12-18T11:09:45;51.03;;;20.03;;
41259;SDS011;26993;48.958;9.330;2022-12-18T11:12:50;49.73;;;18.47;;
41259;SDS011;26993;48.958;9.330;2022-12-18T11:15:39;59.47;;;20.87;;
41259;SDS011;26993;48.958;9.330;2022-12-18T11:18:28;51.87;;;19.57;;
41259;SDS011;26993;48.958;9.330;2022-12-18T11:21:15;55.20;;;20.70;;
41259;SDS011;26993;48.958;9.330;2022-12-18T11:24:02;51.63;;;20.30;;
41259;SDS011;26993;48.958;9.330;2022-12-18T11:26:50;48.43;;;18.87;;
41259;SDS011;26993;48.958;9.330;2022-12-18T11:29:39;54.10;;;19.63;;
41259;SDS011;26993;48.958;9.330;2022-12-18T11:32:28;47.67;;;18.37;;
41259;SDS011;26993;48.958;9.330;2022-12-18T11:35:19;49.80;;;19.30;;
41259;SDS011;26993;48.958;9.330;2022-12-18T11:38:15;51.90;;;18.63;;
41259;SDS011;26993;48.958;9.330;2022-12-18T11:41:11;49.37;;;18.47;;
41259;SDS011;26993;48.958;9.330;2022-12-18T11:44:29;51.87;;;18.77;;
41259;SDS011;26993;48.958;9.330;2022-12-18T11:47:26;51.63;;;19.13;;
41259;SDS011;26993;48.958;9.330;2022-12-18T11:50:20;54.30;;;19.30;;
41259;SDS011;26993;48.958;9.330;2022-12-18T11:53:10;52.50;;;20.03;;
41259;SDS011;26993;48.958;9.330;2022-12-18T11:56:07;52.17;;;19.10;;
41259;SDS011;26993;48.958;9.330;2022-12-18T11:59:15;47.37;;;18.23;;
41259;SDS011;26993;48.958;9.330;2022-12-18T12:02:15;50.77;;;18.67;;
41259;SDS011;26993;48.958;9.330;2022-12-18T12:05:18;46.30;;;17.00;;
41259;SDS011;26993;48.958;9.330;2022-12-18T12:08:15;49.33;;;18.43;;
41259;SDS011;26993;48.958;9.330;2022-12-18T12:11:10;46.73;;;18.33;;
41259;SDS011;26993;48.958;9.330;2022-12-18T12:14:10;51.90;;;18.23;;
41259;SDS011;26993;48.958;9.330;2022-12-18T12:17:09;48.03;;;18.53;;
41259;SDS011;26993;48.958;9.330;2022-12-18T12:20:01;46.60;;;17.87;;
41259;SDS011;26993;48.958;9.330;2022-12-18T12:22:56;46.50;;;18.03;;
41259;SDS011;26993;48.958;9.330;2022-12-18T12:25:48;43.07;;;17.60;;
41259;SDS011;26993;48.958;9.330;2022-12-18T12:28:57;48.57;;;18.87;;
41259;SDS011;26993;48.958;9.330;2022-12-18T12:31:53;49.10;;;17.57;;
41259;SDS011;26993;48.958;9.330;2022-12-18T12:34:54;46.60;;;17.63;;
41259;SDS011;26993;48.958;9.330;2022-12-18T12:37:52;48.57;;;18.83;;
41259;SDS011;26993;48.958;9.330;2022-12-18T12:40:51;46.50;;;17.63;;
41259;SDS011;26993;48.958;9.330;2022-12-18T12:43:43;44.20;;;17.13;;
41259;SDS011;26993;48.958;9.330;2022-12-18T12:46:32;41.87;;;16.43;;
41259;SDS011;26993;48.958;9.330;2022-12-18T12:49:25;45.70;;;17.43;;
41259;SDS011;26993;48.958;9.330;2022-12-18T12:52:14;45.03;;;18.13;;
41259;SDS011;26993;48.958;9.330;2022-12-18T12:58:14;48.70;;;18.60;;
41259;SDS011;26993;48.958;9.330;2022-12-18T13:01:09;47.43;;;18.60;;
41259;SDS011;26993;48.958;9.330;2022-12-18T13:04:08;41.87;;;17.00;;
41259;SDS011;26993;48.958;9.330;2022-12-18T13:07:08;43.80;;;18.00;;
41259;SDS011;26993;48.958;9.330;2022-12-18T13:10:12;47.03;;;18.60;;
41259;SDS011;26993;48.958;9.330;2022-12-18T13:13:10;38.70;;;16.67;;
41259;SDS011;26993;48.958;9.330;2022-12-18T13:16:03;43.47;;;17.87;;
41259;SDS011;26993;48.958;9.330;2022-12-18T13:18:52;47.77;;;18.33;;
41259;SDS011;26993;48.958;9.330;2022-12-18T13:21:41;45.40;;;17.57;;
41259;SDS011;26993;48.958;9.330;2022-12-18T13:24:30;46.17;;;18.23;;
41259;SDS011;26993;48.958;9.330;2022-12-18T13:30:46;40.27;;;17.03;;
41259;SDS011;26993;48.958;9.330;2022-12-18T13:33:40;46.30;;;17.83;;
41259;SDS011;26993;48.958;9.330;2022-12-18T13:36:32;45.83;;;17.53;;
41259;SDS011;26993;48.958;9.330;2022-12-18T13:39:24;45.13;;;17.40;;
41259;SDS011;26993;48.958;9.330;2022-12-18T13:42:37;45.93;;;17.77;;
41259;SDS011;26993;48.958;9.330;2022-12-18T13:45:43;42.90;;;17.33;;
41259;SDS011;26993;48.958;9.330;2022-12-18T13:48:33;41.50;;;16.60;;
41259;SDS011;26993;48.958;9.330;2022-12-18T13:51:23;43.00;;;16.53;;
41259;SDS011;26993;48.958;9.330;2022-12-18T13:54:14;48.30;;;18.77;;
41259;SDS011;26993;48.958;9.330;2022-12-18T13:57:23;41.43;;;16.30;;
41259;SDS011;26993;48.958;9.330;2022-12-18T14:00:17;42.63;;;16.77;;
41259;SDS011;26993;48.958;9.330;2022-12-18T14:03:21;48.07;;;17.73;;
41259;SDS011;26993;48.958;9.330;2022-12-18T14:06:12;42.57;;;17.40;;
41259;SDS011;26993;48.958;9.330;2022-12-18T14:08:59;42.50;;;17.40;;
41259;SDS011;26993;48.958;9.330;2022-12-18T14:11:46;46.97;;;18.33;;
41259;SDS011;26993;48.958;9.330;2022-12-18T14:14:34;41.63;;;16.77;;
41259;SDS011;26993;48.958;9.330;2022-12-18T14:17:21;43.27;;;17.17;;
41259;SDS011;26993;48.958;9.330;2022-12-18T14:20:12;46.17;;;18.03;;
41259;SDS011;26993;48.958;9.330;2022-12-18T14:23:02;46.13;;;18.57;;
41259;SDS011;26993;48.958;9.330;2022-12-18T14:25:48;45.53;;;18.40;;
41259;SDS011;26993;48.958;9.330;2022-12-18T14:28:42;42.60;;;17.83;;
41259;SDS011;26993;48.958;9.330;2022-12-18T14:31:30;45.90;;;17.13;;
41259;SDS011;26993;48.958;9.330;2022-12-18T14:34:17;40.83;;;16.73;;
41259;SDS011;26993;48.958;9.330;2022-12-18T14:37:04;46.77;;;17.27;;
41259;SDS011;26993;48.958;9.330;2022-12-18T14:39:54;45.53;;;17.67;;
41259;SDS011;26993;48.958;9.330;2022-12-18T14:42:42;49.73;;;18.70;;
41259;SDS011;26993;48.958;9.330;2022-12-18T14:45:34;45.07;;;18.13;;
41259;SDS011;26993;48.958;9.330;2022-12-18T14:48:33;46.13;;;18.73;;
41259;SDS011;26993;48.958;9.330;2022-12-18T14:51:25;42.53;;;17.53;;
41259;SDS011;26993;48.958;9.330;2022-12-18T14:54:14;43.80;;;16.23;;
41259;SDS011;26993;48.958;9.330;2022-12-18T14:57:05;43.60;;;17.57;;
41259;SDS011;26993;48.958;9.330;2022-12-18T15:00:03;42.00;;;17.00;;
41259;SDS011;26993;48.958;9.330;2022-12-18T15:02:52;46.13;;;17.63;;
41259;SDS011;26993;48.958;9.330;2022-12-18T15:05:40;42.77;;;17.47;;
41259;SDS011;26993;48.958;9.330;2022-12-18T15:08:31;38.40;;;15.60;;
41259;SDS011;26993;48.958;9.330;2022-12-18T15:11:28;42.77;;;16.47;;
41259;SDS011;26993;48.958;9.330;2022-12-18T15:14:28;42.50;;;16.83;;
41259;SDS011;26993;48.958;9.330;2022-12-18T15:17:18;43.10;;;16.37;;
41259;SDS011;26993;48.958;9.330;2022-12-18T15:20:09;40.13;;;17.03;;
41259;SDS011;26993;48.958;9.330;2022-12-18T15:22:57;45.00;;;17.37;;
41259;SDS011;26993;48.958;9.330;2022-12-18T15:25:44;42.90;;;16.50;;
41259;SDS011;26993;48.958;9.330;2022-12-18T15:28:32;41.30;;;15.97;;
41259;SDS011;26993;48.958;9.330;2022-12-18T15:31:29;42.10;;;16.43;;
41259;SDS011;26993;48.958;9.330;2022-12-18T15:34:22;38.30;;;16.37;;
41259;SDS011;26993;48.958;9.330;2022-12-18T15:37:10;45.77;;;18.07;;
41259;SDS011;26993;48.958;9.330;2022-12-18T15:39:56;43.37;;;16.80;;
41259;SDS011;26993;48.958;9.330;2022-12-18T15:42:43;42.67;;;17.30;;
41259;SDS011;26993;48.958;9.330;2022-12-18T15:45:49;40.90;;;17.00;;
41259;SDS011;26993;48.958;9.330;2022-12-18T15:48:38;50.30;;;18.23;;
41259;SDS011;26993;48.958;9.330;2022-12-18T15:51:27;44.50;;;17.83;;
41259;SDS011;26993;48.958;9.330;2022-12-18T15:54:17;41.97;;;17.00;;
41259;SDS011;26993;48.958;9.330;2022-12-18T15:57:24;47.73;;;17.17;;
41259;SDS011;26993;48.958;9.330;2022-12-18T16:00:11;46.23;;;17.13;;
41259;SDS011;26993;48.958;9.330;2022-12-18T16:03:01;44.00;;;17.87;;
41259;SDS011;26993;48.958;9.330;2022-12-18T16:05:49;44.43;;;18.30;;
41259;SDS011;26993;48.958;9.330;2022-12-18T16:08:35;43.50;;;16.57;;
41259;SDS011;26993;48.958;9.330;2022-12-18T16:11:23;39.93;;;15.73;;
41259;SDS011;26993;48.958;9.330;2022-12-18T16:14:24;43.53;;;17.00;;
41259;SDS011;26993;48.958;9.330;2022-12-18T16:17:13;40.87;;;16.73;;
41259;SDS011;26993;48.958;9.330;2022-12-18T16:20:00;48.03;;;17.60;;
41259;SDS011;26993;48.958;9.330;2022-12-18T16:22:48;46.30;;;17.60;;
41259;SDS011;26993;48.958;9.330;2022-12-18T16:25:35;45.17;;;16.80;;
41259;SDS011;26993;48.958;9.330;2022-12-18T16:28:21;44.03;;;16.93;;
41259;SDS011;26993;48.958;9.330;2022-12-18T16:31:08;46.47;;;18.23;;
41259;SDS011;26993;48.958;9.330;2022-12-18T16:34:11;42.87;;;17.60;;
41259;SDS011;26993;48.958;9.330;2022-12-18T16:36:59;46.77;;;17.73;;
41259;SDS011;26993;48.958;9.330;2022-12-18T16:39:49;45.43;;;17.27;;
41259;SDS011;26993;48.958;9.330;2022-12-18T16:42:35;42.53;;;17.67;;